EDDF/FRA METAR and TAF weather

Enter ICAO airport designator
Station Type Date Time Source
EDDF METAR 2022/11/30 15:50 UTC NOAA

EDDF 301550Z AUTO 07004KT 010V080 9999 OVC019 08/06 Q1022


Station Type Date Time Source
EDDF Decoded METAR 2022/11/30 15:50 UTC NOAA

Frankfurt / M-Flughafen, Germany (EDDF) 50-03N 008-36E 113M
Nov 30, 2022 - 10:50 AM EST / 2022.11.30 1550 UTC
Wind: from the ENE (070 degrees) at 5 MPH (4 KT) (direction variable):0
Visibility: greater than 7 mile(s):0
Sky conditions: overcast
Temperature: 46 F (8 C)
Dew Point: 42 F (6 C)
Relative Humidity: 87%
Pressure (altimeter): 30.18 in. Hg (1022 hPa)
ob: EDDF 301550Z AUTO 07004KT 010V080 9999 OVC019 08/06 Q1022
cycle: 16

Station Type Date Time Source
EDDF TAF 2022/11/30 12:27 UTC NOAA

TAF TAF EDDF 301100Z 3012/0118 04005KT 9000 SCT006 BKN015
TEMPO 3012/3015 4000 -DZ BR BKN006
TEMPO 3015/3021 BKN012
TEMPO 3021/0109 3000 -DZ BR BKN008 PROB30
TEMPO 0115/0118 SCT015

Example: see airport list